logo
Search for airport 
image banner adimage banner adimage banner ad
image banner ad

LKZN - Znojmo

Located in Znojmo, Czech Republic

ICAO - LKZN, IATA -

Data provided by Airmate  

General information

Coordinates: N48°49'4" E16°3'57"
Elevation is 827 feet MSL.
 
View others Airports in South Moravian Region

Operational data

Special qualification required
Current time UTC:
Current local time:
Weather at : LKNA - Namest ( 39 km )
METAR: LKNA 171900Z 33006KT CAVOK 04/M00 Q1007 NOSIG
TAF: TAF LKNA 171700Z 1718/1818 34007KT CAVOK BECMG 1806/1808 32010KT 9999 BKN025 BKN035 TEMPO 1809/1817 33015KT 8000 SHRA BKN015 PROB40 1811/1815 32015G25KT 6000 SHRA BKN014TCU
View NOTAMs / SUP AIP / TFR affecting this airport [VIEW]
Communications frequencies: [VIEW]

Runways:

RWY identifierQFULength (ft)Width (ft)SurfaceLDA (ft)
08282259GRASS
26282259GRASS

Airport contact information

Address: Znojmo Czech Republic

Satellite view of LKZN